createdAt,value
2017-04-10T00:00:36.671Z,34.11
2017-04-10T00:01:36.682Z,34.11
2017-04-10T00:02:36.643Z,34.11
2017-04-10T00:03:36.698Z,34.11
2017-04-10T00:04:36.703Z,33.82
2017-04-10T00:05:36.342Z,33.92
2017-04-10T00:06:36.713Z,34.11
2017-04-10T00:07:36.347Z,34.11
2017-04-10T00:08:36.375Z,34.22
2017-04-10T00:09:36.675Z,34.21
2017-04-10T00:10:36.727Z,33.82
2017-04-10T00:11:36.698Z,34.11
2017-04-10T00:12:36.378Z,34.11
2017-04-10T00:13:36.706Z,34.21
2017-04-10T00:14:36.705Z,34.21
2017-04-10T00:15:36.756Z,34.11
2017-04-10T00:16:36.418Z,34.01
2017-04-10T00:17:36.723Z,34.21
2017-04-10T00:18:36.993Z,34.21
2017-04-10T00:19:36.745Z,33.73
2017-04-10T00:20:36.436Z,34.22
2017-04-10T00:21:36.795Z,34.11
2017-04-10T00:22:36.753Z,34.22
2017-04-10T00:23:36.811Z,34.21
2017-04-10T00:24:36.767Z,34.11
2017-04-10T00:25:36.821Z,34.21
2017-04-10T00:26:36.780Z,34.21
2017-04-10T00:27:36.783Z,34.21
2017-04-10T00:28:36.795Z,34.21
2017-04-10T00:29:36.796Z,34.13
2017-04-10T00:30:36.850Z,34.21
2017-04-10T00:31:36.806Z,34.22
2017-04-10T00:32:36.814Z,34.11
2017-04-10T00:33:36.505Z,34.3
2017-04-10T00:34:36.511Z,34.21
2017-04-10T00:35:36.518Z,34.11
2017-04-10T00:36:36.886Z,33.73
2017-04-10T00:37:36.842Z,34.22
2017-04-10T00:38:36.900Z,34.11
2017-04-10T00:39:36.857Z,34.21
2017-04-10T00:40:36.909Z,34.21
2017-04-10T00:41:36.918Z,34.21
2017-04-10T00:42:36.874Z,34.21
2017-04-10T00:43:36.932Z,34.11
2017-04-10T00:44:36.569Z,33.63
2017-04-10T00:45:36.890Z,34.21
2017-04-10T00:46:36.581Z,34.21
2017-04-10T00:47:36.901Z,34.01
2017-04-10T00:48:36.910Z,34.11
2017-04-10T00:49:36.915Z,34.01
2017-04-10T00:50:36.922Z,34.01
2017-04-10T00:51:36.977Z,34.11
2017-04-10T00:52:36.932Z,34.11
2017-04-10T00:53:36.943Z,34.13
2017-04-10T00:54:36.944Z,34.11
2017-04-10T00:55:36.947Z,34.22
2017-04-10T00:56:36.954Z,33.82
2017-04-10T00:57:36.695Z,34.11
2017-04-10T00:58:36.967Z,33.92
2017-04-10T00:59:36.972Z,33.82
2017-04-10T01:00:37.028Z,34.01
2017-04-10T01:01:36.670Z,33.82
2017-04-10T01:02:36.676Z,33.92
2017-04-10T01:03:36.682Z,33.92
2017-04-10T01:04:37.904Z,33.92
2017-04-10T01:05:37.009Z,33.82
2017-04-10T01:06:37.013Z,33.82
2017-04-10T01:07:37.072Z,33.82
2017-04-10T01:08:37.078Z,33.82
2017-04-10T01:09:37.031Z,33.73
2017-04-10T01:10:37.038Z,33.73
2017-04-10T01:11:37.043Z,33.92
2017-04-10T01:12:37.052Z,33.73
2017-04-10T01:13:36.742Z,34.3
2017-04-10T01:14:36.757Z,33.82
2017-04-10T01:15:36.751Z,33.92
2017-04-10T01:16:37.123Z,34.01
2017-04-10T01:17:37.082Z,33.73
2017-04-10T01:18:37.137Z,33.82
2017-04-10T01:19:37.090Z,34.01
2017-04-10T01:20:37.146Z,33.82
2017-04-10T01:21:37.101Z,33.82
2017-04-10T01:22:37.157Z,33.73
2017-04-10T01:23:37.169Z,33.73
2017-04-10T01:24:37.172Z,33.73
2017-04-10T01:25:37.126Z,33.92
2017-04-10T01:26:37.131Z,34.3
2017-04-10T01:27:37.137Z,33.73
2017-04-10T01:28:37.193Z,33.82
2017-04-10T01:29:37.153Z,33.73
2017-04-10T01:30:37.156Z,33.92
2017-04-10T01:31:37.161Z,33.92
2017-04-10T01:32:37.220Z,33.92
2017-04-10T01:33:36.911Z,33.82
2017-04-10T01:34:37.180Z,33.73
2017-04-10T01:35:37.185Z,34.3
2017-04-10T01:36:37.195Z,34.3
2017-04-10T01:37:37.201Z,34.21
2017-04-10T01:38:37.255Z,34.11
2017-04-10T01:39:37.210Z,34.3
2017-04-10T01:40:37.267Z,34.3
2017-04-10T01:41:37.271Z,34.3
2017-04-10T01:42:37.375Z,34.3
2017-04-10T01:43:37.236Z,34.21
2017-04-10T01:44:37.239Z,34.4
2017-04-10T01:45:37.245Z,34.21
2017-04-10T01:46:37.304Z,34.4
2017-04-10T01:47:37.258Z,34.11
2017-04-10T01:48:37.263Z,34.3
2017-04-10T01:49:37.268Z,34.5
2017-04-10T01:50:37.278Z,34.01
2017-04-10T01:51:37.334Z,34.3
2017-04-10T01:52:37.288Z,34.3
2017-04-10T01:53:37.291Z,33.92
2017-04-10T01:54:37.186Z,34.11
2017-04-10T01:55:37.040Z,34.3
2017-04-10T01:56:37.309Z,33.73
2017-04-10T01:57:37.314Z,34.4
2017-04-10T01:58:37.372Z,34.21
2017-04-10T01:59:37.013Z,33.92
2017-04-10T02:00:37.334Z,34.01
2017-04-10T02:01:37.337Z,33.82
2017-04-10T02:02:37.378Z,34.5
2017-04-10T02:03:37.400Z,34.4
2017-04-10T02:04:37.043Z,34.4
2017-04-10T02:05:37.412Z,34.4
2017-04-10T02:06:37.369Z,34.11
2017-04-10T02:07:37.430Z,34.11
2017-04-10T02:08:37.117Z,34.11
2017-04-10T02:09:37.372Z,34.5
2017-04-10T02:10:37.392Z,34.01
2017-04-10T02:11:37.397Z,34.4
2017-04-10T02:12:37.407Z,34.01
2017-04-10T02:13:37.424Z,34.59
2017-04-10T02:14:37.475Z,34.11
2017-04-10T02:15:37.421Z,34.21
2017-04-10T02:16:37.428Z,34.21
2017-04-10T02:17:37.436Z,34.4
2017-04-10T02:18:37.441Z,34.21
2017-04-10T02:19:37.444Z,34.21
2017-04-10T02:20:37.451Z,34.21
2017-04-10T02:21:37.493Z,34.3
2017-04-10T02:22:37.462Z,34.21
2017-04-10T02:23:37.467Z,34.3
2017-04-10T02:24:37.477Z,34.21
2017-04-10T02:25:37.483Z,34.3
2017-04-10T02:26:37.472Z,34.4
2017-04-10T02:27:37.491Z,34.4
2017-04-10T02:28:37.550Z,34.3
2017-04-10T02:29:37.504Z,34.21
2017-04-10T02:30:37.509Z,34.11
2017-04-10T02:31:37.516Z,34.4
2017-04-10T02:32:37.521Z,34.21
2017-04-10T02:33:37.525Z,34.4
2017-04-10T02:34:37.584Z,34.21
2017-04-10T02:35:37.538Z,34.3
2017-04-10T02:36:37.550Z,34.5
2017-04-10T02:37:37.548Z,34.3
2017-04-10T02:38:37.655Z,34.3
2017-04-10T02:39:37.611Z,34.59
2017-04-10T02:40:37.615Z,34.3
2017-04-10T02:41:37.624Z,34.4
2017-04-10T02:42:37.268Z,34.3
2017-04-10T02:43:37.637Z,34.01
2017-04-10T02:44:37.639Z,34.3
2017-04-10T02:45:37.596Z,34.01
2017-04-10T02:46:37.600Z,34.11
2017-04-10T02:47:37.378Z,34.5
2017-04-10T02:48:37.350Z,34.4
2017-04-10T02:49:37.618Z,34.4
2017-04-10T02:50:37.676Z,34.4
2017-04-10T02:51:37.628Z,34.3
2017-04-10T02:52:37.634Z,34.4
2017-04-10T02:53:37.743Z,34.3
2017-04-10T02:54:37.697Z,34.01
2017-04-10T02:55:37.708Z,34.3
2017-04-10T02:56:37.659Z,34.11
2017-04-10T02:57:37.665Z,34.21
2017-04-10T02:58:37.671Z,34.5
2017-04-10T02:59:37.678Z,34.21
2017-04-10T03:00:37.732Z,34.4
2017-04-10T03:01:37.687Z,34.4
2017-04-10T03:02:37.749Z,34.3
2017-04-10T03:03:37.804Z,34.5
2017-04-10T03:04:37.706Z,34.5
2017-04-10T03:05:37.400Z,34.11
2017-04-10T03:06:37.717Z,34.5
2017-04-10T03:07:37.511Z,34.11
2017-04-10T03:08:37.731Z,34.4
2017-04-10T03:09:37.805Z,34.3
2017-04-10T03:10:37.791Z,34.4
2017-04-10T03:11:37.847Z,34.5
2017-04-10T03:12:37.751Z,34.4
2017-04-10T03:13:38.307Z,34.5
2017-04-10T03:14:37.763Z,34.3
2017-04-10T03:15:37.769Z,34.69
2017-04-10T03:16:37.824Z,34.5
2017-04-10T03:17:37.784Z,34.5
2017-04-10T03:18:37.838Z,34.59
2017-04-10T03:19:37.481Z,34.5
2017-04-10T03:20:37.850Z,34.5
2017-04-10T03:21:37.808Z,34.5
2017-04-10T03:22:37.814Z,34.5
2017-04-10T03:23:37.871Z,34.59
2017-04-10T03:24:37.506Z,34.4
2017-04-10T03:25:37.829Z,34.69
2017-04-10T03:26:37.884Z,34.5
2017-04-10T03:27:37.902Z,34.78
2017-04-10T03:28:37.899Z,34.59
2017-04-10T03:29:37.855Z,34.59
2017-04-10T03:30:37.860Z,34.69
2017-04-10T03:31:37.865Z,34.5
2017-04-10T03:32:37.919Z,34.5
2017-04-10T03:33:37.619Z,34.69
2017-04-10T03:34:37.884Z,34.5
2017-04-10T03:35:37.575Z,34.59
2017-04-10T03:36:37.945Z,34.78
2017-04-10T03:37:37.899Z,34.69
2017-04-10T03:38:37.912Z,34.69
2017-04-10T03:39:37.909Z,34.88
2017-04-10T03:40:37.915Z,34.59
2017-04-10T03:41:37.922Z,34.88
2017-04-10T03:42:37.980Z,34.88
2017-04-10T03:43:37.983Z,34.69
2017-04-10T03:44:37.625Z,34.88
2017-04-10T03:45:37.994Z,34.98
2017-04-10T03:46:37.984Z,34.88
2017-04-10T03:47:37.957Z,34.98
2017-04-10T03:48:37.962Z,34.98
2017-04-10T03:49:37.970Z,34.98
2017-04-10T03:50:38.026Z,34.98
2017-04-10T03:51:38.079Z,34.98
2017-04-10T03:52:37.987Z,34.88
2017-04-10T03:53:37.990Z,34.88
2017-04-10T03:54:37.998Z,34.88
2017-04-10T03:55:38.002Z,34.88
2017-04-10T03:56:38.057Z,34.88
2017-04-10T03:57:38.012Z,34.78
2017-04-10T03:58:38.020Z,34.78
2017-04-10T03:59:38.023Z,34.88
2017-04-10T04:00:38.035Z,34.78
2017-04-10T04:01:37.722Z,34.78
2017-04-10T04:02:38.043Z,34.78
2017-04-10T04:03:38.127Z,34.88
2017-04-10T04:04:37.740Z,34.98
2017-04-10T04:05:38.063Z,34.88
2017-04-10T04:06:38.119Z,34.78
2017-04-10T04:07:38.073Z,34.88
2017-04-10T04:08:38.078Z,34.78
2017-04-10T04:09:38.135Z,34.98
2017-04-10T04:10:37.790Z,34.78
2017-04-10T04:11:38.146Z,34.98
2017-04-10T04:12:37.887Z,34.88
2017-04-10T04:13:38.106Z,34.78
2017-04-10T04:14:38.115Z,34.88
2017-04-10T04:15:38.117Z,34.5
2017-04-10T04:16:38.126Z,34.78
2017-04-10T04:17:38.130Z,34.5
2017-04-10T04:18:38.188Z,34.69
2017-04-10T04:19:37.826Z,34.5
2017-04-10T04:20:38.146Z,34.4
2017-04-10T04:21:38.158Z,34.4
2017-04-10T04:22:38.161Z,34.4
2017-04-10T04:23:38.164Z,34.4
2017-04-10T04:24:38.222Z,34.4
2017-04-10T04:25:38.176Z,34.21
2017-04-10T04:26:38.185Z,34.11
2017-04-10T04:27:37.924Z,34.21
2017-04-10T04:28:38.244Z,34.11
2017-04-10T04:29:38.201Z,33.92
2017-04-10T04:30:38.204Z,34.4
2017-04-10T04:31:38.260Z,34.3
2017-04-10T04:32:38.268Z,34.3
2017-04-10T04:33:39.826Z,34.21
2017-04-10T04:34:38.225Z,34.32
2017-04-10T04:35:38.231Z,34.21
2017-04-10T04:36:38.330Z,34.5
2017-04-10T04:37:37.980Z,34.4
2017-04-10T04:38:38.302Z,33.82
2017-04-10T04:39:37.994Z,33.73
2017-04-10T04:40:38.314Z,34.03
2017-04-10T04:41:38.317Z,34.21
2017-04-10T04:42:38.014Z,34.21
2017-04-10T04:43:38.329Z,33.82
2017-04-10T04:44:38.286Z,33.84
2017-04-10T04:45:38.292Z,33.94
2017-04-10T04:46:38.347Z,33.82
2017-04-10T04:47:38.355Z,34.03
2017-04-10T04:48:38.359Z,34.03
2017-04-10T04:49:38.315Z,34.03
2017-04-10T04:50:38.972Z,34.03
2017-04-10T04:51:38.379Z,34.22
2017-04-10T04:52:38.334Z,34.32
2017-04-10T04:53:38.337Z,33.65
2017-04-10T04:54:38.344Z,33.74
2017-04-10T04:55:38.037Z,33.74
2017-04-10T04:56:38.359Z,33.65
2017-04-10T04:57:38.049Z,33.84
2017-04-10T04:58:38.420Z,33.84
2017-04-10T04:59:38.373Z,33.74
2017-04-10T05:00:38.382Z,33.65
2017-04-10T05:01:38.388Z,33.74
2017-04-10T05:02:38.444Z,33.36
2017-04-10T05:03:52.958Z,33.36
2017-04-10T05:04:38.404Z,33.45
2017-04-10T05:05:38.409Z,33.36
2017-04-10T05:06:38.416Z,33.37
2017-04-10T05:07:38.421Z,33.45
2017-04-10T05:08:38.426Z,33.45
2017-04-10T05:09:38.438Z,33.55
2017-04-10T05:10:38.442Z,33.55
2017-04-10T05:11:39.348Z,33.26
2017-04-10T05:12:38.452Z,33.07
2017-04-10T05:13:38.539Z,33.18
2017-04-10T05:14:38.515Z,33.18
2017-04-10T05:15:38.568Z,33.28
2017-04-10T05:16:38.476Z,32.89
2017-04-10T05:17:38.531Z,33.18
2017-04-10T05:18:38.488Z,32.97
2017-04-10T05:19:38.495Z,32.99
2017-04-10T05:20:38.501Z,33.18
2017-04-10T05:21:38.189Z,32.99
2017-04-10T05:22:38.247Z,32.99
2017-04-10T05:23:38.518Z,32.79
2017-04-10T05:24:38.524Z,32.79
2017-04-10T05:25:38.531Z,32.7
2017-04-10T05:26:38.535Z,32.7
2017-04-10T05:27:38.544Z,32.79
2017-04-10T05:28:38.283Z,32.79
2017-04-10T05:29:38.602Z,32.79
2017-04-10T05:30:38.560Z,32.7
2017-04-10T05:31:38.251Z,32.79
2017-04-10T05:32:38.571Z,32.79
2017-04-10T05:33:53.138Z,32.7
2017-04-10T05:34:38.585Z,32.51
2017-04-10T05:35:38.591Z,32.41
2017-04-10T05:36:38.598Z,32.51
2017-04-10T05:37:38.601Z,32.51
2017-04-10T05:38:38.608Z,32.41
2017-04-10T05:39:38.667Z,32.51
2017-04-10T05:40:38.622Z,32.51
2017-04-10T05:41:38.370Z,32.51
2017-04-10T05:42:38.635Z,32.6
2017-04-10T05:43:38.639Z,32.51
2017-04-10T05:44:38.382Z,32.6
2017-04-10T05:45:38.702Z,32.41
2017-04-10T05:46:38.659Z,32.33
2017-04-10T05:47:38.669Z,32.33
2017-04-10T05:48:38.718Z,32.33
2017-04-10T05:49:38.677Z,32.23
2017-04-10T05:50:38.681Z,32.23
2017-04-10T05:51:38.690Z,32.21
2017-04-10T05:52:38.695Z,32.31
2017-04-10T05:53:38.700Z,32.23
2017-04-10T05:54:38.708Z,32.14
2017-04-10T05:55:38.713Z,32.04
2017-04-10T05:56:38.722Z,32.14
2017-04-10T05:57:38.725Z,32.14
2017-04-10T05:58:38.732Z,32.14
2017-04-10T05:59:38.738Z,32.23
2017-04-10T06:00:38.747Z,32.14
2017-04-10T06:01:38.853Z,32.04
2017-04-10T06:02:38.807Z,32.14
2017-04-10T06:03:53.373Z,32.14
2017-04-10T06:04:38.770Z,32.14
2017-04-10T06:05:38.509Z,32.04
2017-04-10T06:06:38.463Z,32.23
2017-04-10T06:07:38.786Z,32.04
2017-04-10T06:08:38.825Z,32.14
2017-04-10T06:09:38.799Z,32.04
2017-04-10T06:10:38.805Z,32.14
2017-04-10T06:11:38.548Z,32.14
2017-04-10T06:12:38.825Z,32.04
2017-04-10T06:13:38.878Z,32.14
2017-04-10T06:14:38.880Z,32.14
2017-04-10T06:15:38.839Z,31.85
2017-04-10T06:16:38.891Z,31.94
2017-04-10T06:17:38.848Z,31.94
2017-04-10T06:18:38.861Z,31.94
2017-04-10T06:19:38.863Z,32.14
2017-04-10T06:20:38.917Z,32.14
2017-04-10T06:21:38.875Z,32.33
2017-04-10T06:22:38.931Z,32.12
2017-04-10T06:23:38.884Z,32.21
2017-04-10T06:24:38.890Z,32.33
2017-04-10T06:25:38.898Z,32.23
2017-04-10T06:26:38.909Z,32.31
2017-04-10T06:27:38.909Z,32.21
2017-04-10T06:28:38.966Z,32.21
2017-04-10T06:29:38.926Z,32.21
2017-04-10T06:30:38.979Z,32.31
2017-04-10T06:31:38.936Z,32.41
2017-04-10T06:32:38.991Z,32.23
2017-04-10T06:33:38.683Z,32.23
2017-04-10T06:34:38.953Z,32.23
2017-04-10T06:35:39.012Z,32.51
2017-04-10T06:36:39.064Z,32.41
2017-04-10T06:37:38.973Z,32.51
2017-04-10T06:38:38.978Z,32.41
2017-04-10T06:39:38.986Z,32.51
2017-04-10T06:40:38.676Z,32.51
2017-04-10T06:41:39.046Z,32.51
2017-04-10T06:42:39.008Z,32.51
2017-04-10T06:43:39.061Z,32.51
2017-04-10T06:44:39.069Z,32.6
2017-04-10T06:45:39.020Z,32.6
2017-04-10T06:46:39.076Z,32.51
2017-04-10T06:47:39.087Z,32.51
2017-04-10T06:48:38.725Z,32.7
2017-04-10T06:49:39.044Z,32.79
2017-04-10T06:50:39.106Z,32.7
2017-04-10T06:51:39.059Z,32.89
2017-04-10T06:52:39.092Z,32.79
2017-04-10T06:53:38.808Z,32.7
2017-04-10T06:54:39.075Z,32.7
2017-04-10T06:55:39.085Z,32.6
2017-04-10T06:56:38.774Z,32.79
2017-04-10T06:57:39.146Z,32.79
2017-04-10T06:58:38.821Z,32.6
2017-04-10T06:59:39.107Z,32.51
2017-04-10T07:00:38.797Z,32.6
2017-04-10T07:01:39.120Z,32.79
2017-04-10T07:02:39.132Z,32.7
2017-04-10T07:03:38.866Z,32.7
2017-04-10T07:04:39.188Z,32.6
2017-04-10T07:05:39.195Z,32.6
2017-04-10T07:06:38.885Z,32.51
2017-04-10T07:07:38.839Z,32.51
2017-04-10T07:08:39.161Z,32.6
2017-04-10T07:09:39.167Z,32.51
2017-04-10T07:10:39.223Z,32.51
2017-04-10T07:11:39.186Z,32.6
2017-04-10T07:12:39.236Z,32.41
2017-04-10T07:13:39.192Z,32.51
2017-04-10T07:14:39.201Z,32.41
2017-04-10T07:15:39.253Z,32.51
2017-04-10T07:16:38.949Z,32.7
2017-04-10T07:17:39.217Z,32.89
2017-04-10T07:18:38.957Z,32.7
2017-04-10T07:19:38.913Z,32.79
2017-04-10T07:20:39.286Z,32.79
2017-04-10T07:21:39.491Z,32.7
2017-04-10T07:22:38.940Z,32.79
2017-04-10T07:23:39.255Z,32.6
2017-04-10T07:24:39.309Z,32.89
2017-04-10T07:25:38.951Z,32.79
2017-04-10T07:26:39.272Z,32.7
2017-04-10T07:27:39.275Z,32.51
2017-04-10T07:28:39.281Z,32.51
2017-04-10T07:29:39.289Z,32.31
2017-04-10T07:30:39.355Z,31.85
2017-04-10T07:31:39.351Z,31.85
2017-04-10T07:32:39.360Z,31.46
2017-04-10T07:33:53.922Z,31.09
2017-04-10T07:34:39.369Z,30.8
2017-04-10T07:35:39.324Z,30.8
2017-04-10T07:36:39.379Z,30.52
2017-04-10T07:37:39.361Z,30.14
2017-04-10T07:38:39.693Z,29.94
2017-04-10T07:39:39.350Z,30.15
2017-04-10T07:40:39.407Z,29.47
2017-04-10T07:41:39.418Z,29.38
2017-04-10T07:42:39.052Z,29.19
2017-04-10T07:43:39.060Z,29.1
2017-04-10T07:44:39.430Z,29.01
2017-04-10T07:45:39.387Z,28.91
2017-04-10T07:46:39.395Z,28.44
2017-04-10T07:47:39.396Z,28.05
2017-04-10T07:48:39.408Z,28.15
2017-04-10T07:49:39.459Z,27.86
2017-04-10T07:50:39.470Z,27.78
2017-04-10T07:51:39.473Z,28.07
2017-04-10T07:52:39.478Z,27.78
2017-04-10T07:53:39.119Z,27.68
2017-04-10T07:54:39.493Z,27.6
2017-04-10T07:55:39.183Z,27.31
2017-04-10T07:56:39.453Z,27.21
2017-04-10T07:57:39.195Z,27.21
2017-04-10T07:58:39.466Z,27.01
2017-04-10T07:59:39.473Z,27.21
2017-04-10T08:00:39.533Z,26.82
2017-04-10T08:01:39.226Z,26.82
2017-04-10T08:02:39.179Z,27.21
2017-04-10T08:03:39.835Z,26.82
2017-04-10T08:04:39.557Z,26.84
2017-04-10T08:05:39.518Z,26.64
2017-04-10T08:06:39.520Z,26.45
2017-04-10T08:07:39.267Z,26.26
2017-04-10T08:08:39.985Z,26.54
2017-04-10T08:09:39.542Z,26.45
2017-04-10T08:10:39.603Z,27.13
2017-04-10T08:11:39.555Z,27.13
2017-04-10T08:12:39.562Z,27.21
2017-04-10T08:13:39.615Z,26.82
2017-04-10T08:14:39.631Z,26.84
2017-04-10T08:15:39.582Z,26.84
2017-04-10T08:16:39.588Z,26.82
2017-04-10T08:17:39.644Z,26.92
2017-04-10T08:18:39.656Z,26.73
2017-04-10T08:19:39.292Z,27.01
2017-04-10T08:20:40.265Z,27.01
2017-04-10T08:21:39.620Z,27.01
2017-04-10T08:22:39.314Z,26.92
2017-04-10T08:23:39.638Z,26.92
2017-04-10T08:24:39.640Z,26.92
2017-04-10T08:25:39.382Z,27.31
2017-04-10T08:26:39.705Z,27.31
2017-04-10T08:27:39.711Z,27.6
2017-04-10T08:28:39.767Z,27.5
2017-04-10T08:29:39.673Z,27.11
2017-04-10T08:30:39.472Z,27.31
2017-04-10T08:31:39.687Z,27.31
2017-04-10T08:32:39.791Z,27.6
2017-04-10T08:33:54.260Z,27.5
2017-04-10T08:34:39.395Z,27.31
2017-04-10T08:35:39.713Z,27.31
2017-04-10T08:36:39.408Z,27.31
2017-04-10T08:37:39.778Z,27.5
2017-04-10T08:38:39.732Z,27.5
2017-04-10T08:39:39.737Z,27.21
2017-04-10T08:40:39.746Z,27.31
2017-04-10T08:41:39.752Z,27.31
2017-04-10T08:42:39.821Z,27.31
2017-04-10T08:43:39.817Z,27.31
2017-04-10T08:44:39.821Z,27.31
2017-04-10T08:45:39.464Z,27.4
2017-04-10T08:46:39.787Z,27.7
2017-04-10T08:47:39.798Z,27.7
2017-04-10T08:48:39.807Z,27.7
2017-04-10T08:49:39.804Z,27.4
2017-04-10T08:50:39.914Z,27.4
2017-04-10T08:51:39.872Z,27.31
2017-04-10T08:52:39.562Z,27.21
2017-04-10T08:53:39.833Z,27.21
2017-04-10T08:54:39.840Z,27.4
2017-04-10T08:55:39.899Z,27.31
2017-04-10T08:56:39.853Z,27.5
2017-04-10T08:57:39.910Z,27.31
2017-04-10T08:58:39.553Z,27.21
2017-04-10T08:59:40.375Z,27.21
2017-04-10T09:00:39.932Z,27.01
2017-04-10T09:01:39.987Z,27.01
2017-04-10T09:02:39.893Z,27.21
2017-04-10T09:03:39.902Z,27.01
2017-04-10T09:04:39.905Z,27.42
2017-04-10T09:05:40.163Z,27.21
2017-04-10T09:06:39.972Z,27.31
2017-04-10T09:07:39.930Z,27.31
2017-04-10T09:08:39.933Z,27.31
2017-04-10T09:09:39.942Z,27.21
2017-04-10T09:10:39.954Z,27.31
2017-04-10T09:11:39.954Z,27.31
2017-04-10T09:12:40.009Z,27.5
2017-04-10T09:13:40.016Z,27.5
2017-04-10T09:14:40.025Z,27.31
2017-04-10T09:15:39.988Z,27.31
2017-04-10T09:16:39.987Z,27.11
2017-04-10T09:17:39.729Z,27.31
2017-04-10T09:18:39.736Z,27.21
2017-04-10T09:19:39.744Z,27.13
2017-04-10T09:20:40.027Z,27.21
2017-04-10T09:21:40.022Z,26.92
2017-04-10T09:22:40.079Z,27.03
2017-04-10T09:23:40.088Z,27.61
2017-04-10T09:24:39.727Z,27.42
2017-04-10T09:25:39.836Z,27.31
2017-04-10T09:26:40.053Z,27.31
2017-04-10T09:27:40.113Z,27.31
2017-04-10T09:28:40.118Z,26.92
2017-04-10T09:29:40.077Z,27.03
2017-04-10T09:30:40.082Z,27.03
2017-04-10T09:31:40.088Z,27.51
2017-04-10T09:32:40.093Z,27.01
2017-04-10T09:33:40.102Z,26.93
2017-04-10T09:34:40.157Z,26.84
2017-04-10T09:35:40.115Z,26.74
2017-04-10T09:36:40.125Z,26.64
2017-04-10T09:37:40.130Z,26.54
2017-04-10T09:38:40.135Z,26.07
2017-04-10T09:39:39.828Z,26.37
2017-04-10T09:40:40.200Z,26.75
2017-04-10T09:41:40.159Z,26.65
2017-04-10T09:42:40.162Z,26.37
2017-04-10T09:43:40.221Z,26.07
2017-04-10T09:44:40.177Z,26.27
2017-04-10T09:45:40.187Z,26.07
2017-04-10T09:46:40.245Z,26.07
2017-04-10T09:47:39.885Z,26.56
2017-04-10T09:48:40.244Z,26.46
2017-04-10T09:49:40.213Z,26.46
2017-04-10T09:50:40.270Z,26.46
2017-04-10T09:51:40.275Z,26.56
2017-04-10T09:52:40.281Z,26.75
2017-04-10T09:53:40.289Z,27.13
2017-04-10T09:54:40.247Z,26.93
2017-04-10T09:55:39.988Z,26.84
2017-04-10T09:56:40.260Z,27.03
2017-04-10T09:57:40.269Z,26.74
2017-04-10T09:58:40.274Z,27.13
2017-04-10T09:59:40.331Z,27.32
2017-04-10T10:00:39.976Z,27.4
2017-04-10T10:01:39.983Z,27.5
2017-04-10T10:02:40.300Z,27.31
2017-04-10T10:03:54.869Z,27.22
2017-04-10T10:04:40.318Z,27.32
2017-04-10T10:05:40.009Z,27.32
2017-04-10T10:06:40.330Z,27.22
2017-04-10T10:07:40.338Z,27.31
2017-04-10T10:08:40.342Z,27.61
2017-04-10T10:09:40.352Z,27.5
2017-04-10T10:10:40.045Z,27.21
2017-04-10T10:11:40.364Z,27.4
2017-04-10T10:12:40.057Z,27.4
2017-04-10T10:13:40.515Z,27.42
2017-04-10T10:14:40.384Z,27.22
2017-04-10T10:15:40.392Z,27.51
2017-04-10T10:16:40.398Z,27.21
2017-04-10T10:17:40.406Z,27.42
2017-04-10T10:18:40.664Z,27.13
2017-04-10T10:19:40.422Z,27.13
2017-04-10T10:20:40.429Z,26.93
2017-04-10T10:21:40.119Z,26.74
2017-04-10T10:22:40.442Z,26.74
2017-04-10T10:23:40.508Z,26.75
2017-04-10T10:24:40.503Z,26.75
2017-04-10T10:25:40.461Z,26.75
2017-04-10T10:26:40.519Z,26.93
2017-04-10T10:27:40.478Z,27.03
2017-04-10T10:28:40.534Z,26.84
2017-04-10T10:29:40.577Z,26.84
2017-04-10T10:30:40.498Z,26.74
2017-04-10T10:31:40.240Z,26.84
2017-04-10T10:32:40.509Z,27.03
2017-04-10T10:33:40.576Z,27.22
2017-04-10T10:34:40.577Z,26.93
2017-04-10T10:35:40.271Z,27.13
2017-04-10T10:36:40.589Z,27.61
2017-04-10T10:37:40.548Z,27.51
2017-04-10T10:38:40.241Z,27.32
2017-04-10T10:39:40.616Z,27.32
2017-04-10T10:40:40.570Z,27.51
2017-04-10T10:41:40.577Z,27.32
2017-04-10T10:42:40.582Z,27.32
2017-04-10T10:43:40.639Z,26.93
2017-04-10T10:44:40.606Z,27.32
2017-04-10T10:45:40.605Z,27.51
2017-04-10T10:46:40.296Z,27.22
2017-04-10T10:47:40.617Z,27.51
2017-04-10T10:48:40.310Z,27.51
2017-04-10T10:49:40.714Z,27.22
2017-04-10T10:50:40.640Z,27.61
2017-04-10T10:51:40.333Z,27.5
2017-04-10T10:52:40.655Z,27.81
2017-04-10T10:53:40.711Z,27.6
2017-04-10T10:54:40.666Z,27.6
2017-04-10T10:55:40.726Z,27.7
2017-04-10T10:56:40.370Z,27.4
2017-04-10T10:57:40.687Z,27.7
2017-04-10T10:58:40.694Z,27.7
2017-04-10T10:59:40.439Z,27.6
